Time,TemperatureF,DewpointF,PressureIn,WindDirection,WindDirectionDegrees,WindSpeedMPH,WindSpeedGustMPH,Humidity,HourlyPrecipIn,Conditions,Clouds,dailyrainin,SoftwareType,DateUTC
2013-06-12 00:03:00,76.0,65.0,29.62,ESE,108,3.0,9.0,70,0.00,,,0.00,,2013-06-12 05:03:00,
2013-06-12 00:12:00,76.0,65.0,29.62,ESE,108,3.0,9.0,70,0.00,,,0.00,,2013-06-12 05:12:00,
2013-06-12 00:22:00,76.0,65.0,29.62,ESE,123,4.0,9.0,70,0.00,,,0.00,,2013-06-12 05:22:00,
2013-06-12 00:32:00,76.0,65.0,29.62,ESE,109,5.0,12.0,69,0.00,,,0.00,,2013-06-12 05:32:00,
2013-06-12 00:42:00,76.0,65.0,29.60,East,95,7.0,14.0,70,0.00,,,0.00,,2013-06-12 05:42:00,
2013-06-12 00:52:00,76.0,65.0,29.60,East,95,7.0,14.0,70,0.00,,,0.00,,2013-06-12 05:52:00,
2013-06-12 01:02:00,76.0,65.0,29.61,ESE,114,2.0,8.0,70,0.00,,,0.00,,2013-06-12 06:02:00,
2013-06-12 01:12:00,76.0,65.0,29.61,ESE,114,2.0,8.0,70,0.00,,,0.00,,2013-06-12 06:12:00,
2013-06-12 01:22:00,76.0,65.0,29.60,East,101,8.0,15.0,70,0.00,,,0.00,,2013-06-12 06:22:00,
2013-06-12 01:32:00,76.0,65.0,29.59,SSE,147,7.0,12.0,70,0.00,,,0.00,,2013-06-12 06:32:00,
2013-06-12 01:42:00,76.0,65.0,29.59,SSE,147,7.0,12.0,70,0.00,,,0.00,,2013-06-12 06:42:00,
2013-06-12 01:52:00,77.0,66.0,29.60,ESE,105,5.0,10.0,69,0.00,,,0.00,,2013-06-12 06:52:00,
2013-06-12 02:02:00,77.0,66.0,29.63,NW,316,0.0,3.0,70,0.00,,,0.00,,2013-06-12 07:02:00,
2013-06-12 02:12:00,77.0,66.0,29.63,NW,316,0.0,3.0,70,0.00,,,0.00,,2013-06-12 07:12:00,
2013-06-12 02:22:00,75.0,66.0,29.64,SSE,167,0.0,7.0,73,0.00,,,0.00,,2013-06-12 07:22:00,
2013-06-12 02:33:00,76.0,67.0,29.64,West,261,0.0,4.0,73,0.00,,,0.00,,2013-06-12 07:33:00,
2013-06-12 02:43:00,76.0,67.0,29.64,West,261,0.0,4.0,73,0.00,,,0.00,,2013-06-12 07:43:00,
2013-06-12 02:53:00,76.0,66.0,29.63,SSW,199,0.0,7.0,72,0.00,,,0.00,,2013-06-12 07:53:00,
2013-06-12 03:02:00,76.0,66.0,29.63,South,178,0.0,3.0,72,0.00,,,0.00,,2013-06-12 08:02:00,
2013-06-12 03:12:00,76.0,66.0,29.63,South,178,0.0,3.0,72,0.00,,,0.00,,2013-06-12 08:12:00,
2013-06-12 03:22:00,76.0,67.0,29.63,South,178,0.0,0.0,73,0.00,,,0.00,,2013-06-12 08:22:00,
2013-06-12 03:33:00,75.0,67.0,29.64,South,178,0.0,0.0,75,0.00,,,0.00,,2013-06-12 08:33:00,
2013-06-12 03:43:00,75.0,67.0,29.64,South,178,0.0,0.0,75,0.00,,,0.00,,2013-06-12 08:43:00,
2013-06-12 03:53:00,73.0,67.0,29.63,SE,130,0.0,2.0,81,0.00,,,0.00,,2013-06-12 08:53:00,
2013-06-12 04:01:00,73.0,66.0,29.62,ESE,116,4.0,9.0,80,0.00,,,0.00,,2013-06-12 09:01:00,
2013-06-12 04:11:00,73.0,66.0,29.62,ESE,116,4.0,9.0,80,0.00,,,0.00,,2013-06-12 09:11:00,
2013-06-12 04:22:00,73.0,66.0,29.62,SE,132,6.0,11.0,79,0.00,,,0.00,,2013-06-12 09:22:00,
2013-06-12 04:33:00,73.0,66.0,29.60,ESE,104,2.0,12.0,79,0.00,,,0.00,,2013-06-12 09:33:00,
2013-06-12 04:42:00,73.0,66.0,29.60,ESE,104,2.0,12.0,79,0.00,,,0.00,,2013-06-12 09:42:00,
2013-06-12 04:53:00,73.0,67.0,29.60,ESE,123,8.0,13.0,81,0.00,,,0.00,,2013-06-12 09:53:00,
2013-06-12 05:01:00,73.0,66.0,29.59,ESE,115,6.0,15.0,80,0.00,,,0.00,,2013-06-12 10:01:00,
2013-06-12 05:11:00,73.0,66.0,29.59,ESE,115,6.0,15.0,80,0.00,,,0.00,,2013-06-12 10:11:00,
2013-06-12 05:23:00,73.0,66.0,29.58,SSE,155,5.0,11.0,80,0.00,,,0.00,,2013-06-12 10:23:00,
2013-06-12 05:33:00,75.0,67.0,29.57,SE,131,8.0,13.0,76,0.00,,,0.00,,2013-06-12 10:33:00,
2013-06-12 05:43:00,75.0,67.0,29.57,SE,131,8.0,13.0,76,0.00,,,0.00,,2013-06-12 10:43:00,
2013-06-12 05:53:00,74.0,66.0,29.59,SE,142,2.0,11.0,77,0.00,,,0.00,,2013-06-12 10:53:00,
2013-06-12 06:02:00,74.0,67.0,29.59,ESE,113,2.0,10.0,79,0.00,,,0.00,,2013-06-12 11:02:00,
2013-06-12 06:12:00,74.0,67.0,29.59,ESE,113,2.0,10.0,79,0.00,,,0.00,,2013-06-12 11:12:00,
2013-06-12 06:24:00,74.0,67.0,29.59,SE,141,3.0,10.0,79,0.00,,,0.00,,2013-06-12 11:24:00,
2013-06-12 06:33:00,73.0,66.0,29.59,SE,127,6.0,12.0,79,0.00,,,0.00,,2013-06-12 11:33:00,
2013-06-12 06:43:00,73.0,66.0,29.59,SE,127,6.0,12.0,79,0.00,,,0.00,,2013-06-12 11:43:00,
2013-06-12 06:53:00,73.0,66.0,29.59,ESE,110,4.0,10.0,79,0.00,,,0.00,,2013-06-12 11:53:00,
2013-06-12 07:01:00,74.0,67.0,29.61,SE,134,0.0,7.0,79,0.00,,,0.00,,2013-06-12 12:01:00,
2013-06-12 07:11:00,74.0,67.0,29.61,SE,134,0.0,7.0,79,0.00,,,0.00,,2013-06-12 12:11:00,
2013-06-12 07:23:00,74.0,67.0,29.61,SSE,156,0.0,6.0,79,0.00,,,0.00,,2013-06-12 12:23:00,
2013-06-12 07:33:00,75.0,68.0,29.62,SSE,153,4.0,8.0,79,0.00,,,0.00,,2013-06-12 12:33:00,
2013-06-12 07:42:00,75.0,68.0,29.62,SSE,153,4.0,8.0,79,0.00,,,0.00,,2013-06-12 12:42:00,
2013-06-12 07:53:00,75.0,68.0,29.62,South,180,2.0,8.0,79,0.00,,,0.00,,2013-06-12 12:53:00,
2013-06-12 08:01:00,75.0,68.0,29.62,South,181,0.0,11.0,79,0.00,,,0.00,,2013-06-12 13:01:00,
2013-06-12 08:12:00,75.0,68.0,29.62,South,181,0.0,11.0,79,0.00,,,0.00,,2013-06-12 13:12:00,
2013-06-12 08:22:00,76.0,69.0,29.62,SSE,167,1.0,6.0,79,0.00,,,0.00,,2013-06-12 13:22:00,
2013-06-12 08:32:00,76.0,69.0,29.62,South,188,2.0,7.0,78,0.00,,,0.00,,2013-06-12 13:32:00,
2013-06-12 08:43:00,76.0,69.0,29.62,South,188,2.0,7.0,78,0.00,,,0.00,,2013-06-12 13:43:00,
2013-06-12 08:53:00,77.0,69.0,29.62,SSW,205,2.0,8.0,77,0.00,,,0.00,,2013-06-12 13:53:00,
2013-06-12 09:02:00,77.0,70.0,29.63,WSW,245,3.0,7.0,79,0.00,,,0.00,,2013-06-12 14:02:00,
2013-06-12 09:11:00,77.0,70.0,29.63,WSW,245,3.0,7.0,79,0.00,,,0.00,,2013-06-12 14:11:00,
2013-06-12 09:24:00,77.0,70.0,29.63,WSW,245,3.0,7.0,79,0.00,,,0.00,,2013-06-12 14:24:00,
2013-06-12 09:33:00,77.0,70.0,29.63,WSW,245,3.0,7.0,79,0.00,,,0.00,,2013-06-12 14:33:00,
2013-06-12 09:43:00,77.0,70.0,29.63,WSW,245,3.0,7.0,79,0.00,,,0.00,,2013-06-12 14:43:00,
2013-06-12 09:53:00,78.0,69.0,29.62,SSW,209,1.0,4.0,75,0.00,,,0.00,,2013-06-12 14:53:00,
2013-06-12 10:01:00,79.0,70.0,29.62,SSW,193,0.0,5.0,73,0.00,,,0.00,,2013-06-12 15:01:00,
2013-06-12 10:12:00,79.0,70.0,29.62,SSW,193,0.0,5.0,73,0.00,,,0.00,,2013-06-12 15:12:00,
2013-06-12 10:23:00,79.0,70.0,29.62,SSW,193,0.0,5.0,73,0.00,,,0.00,,2013-06-12 15:23:00,
2013-06-12 10:33:00,80.0,70.0,29.63,WSW,257,6.0,11.0,72,0.00,,,0.00,,2013-06-12 15:33:00,
2013-06-12 10:43:00,80.0,70.0,29.63,WSW,257,6.0,11.0,72,0.00,,,0.00,,2013-06-12 15:43:00,
2013-06-12 10:52:00,80.0,71.0,29.63,WNW,291,5.0,9.0,73,0.00,,,0.00,,2013-06-12 15:52:00,
2013-06-12 11:01:00,79.0,70.0,29.63,WNW,294,3.0,8.0,73,0.00,,,0.00,,2013-06-12 16:01:00,
2013-06-12 11:11:00,79.0,70.0,29.63,WNW,294,3.0,8.0,73,0.00,,,0.00,,2013-06-12 16:11:00,
2013-06-12 11:22:00,80.0,70.0,29.63,West,262,6.0,12.0,72,0.00,,,0.00,,2013-06-12 16:22:00,
2013-06-12 11:32:00,80.0,70.0,29.64,NW,310,7.0,10.0,71,0.00,,,0.00,,2013-06-12 16:32:00,
2013-06-12 11:43:00,80.0,70.0,29.64,NW,310,7.0,10.0,71,0.00,,,0.00,,2013-06-12 16:43:00,
2013-06-12 11:52:00,80.0,70.0,29.65,WNW,291,6.0,11.0,72,0.00,,,0.00,,2013-06-12 16:52:00,
2013-06-12 12:01:00,81.0,71.0,29.65,WNW,297,5.0,14.0,71,0.00,,,0.00,,2013-06-12 17:01:00,
2013-06-12 12:11:00,81.0,71.0,29.65,WNW,297,5.0,14.0,71,0.00,,,0.00,,2013-06-12 17:11:00,
2013-06-12 12:22:00,81.0,71.0,29.65,WNW,297,5.0,14.0,71,0.00,,,0.00,,2013-06-12 17:22:00,
2013-06-12 12:33:00,83.0,70.0,29.66,WNW,288,12.0,20.0,66,0.00,,,0.00,,2013-06-12 17:33:00,
2013-06-12 12:42:00,83.0,70.0,29.66,WNW,288,12.0,20.0,66,0.00,,,0.00,,2013-06-12 17:42:00,
2013-06-12 12:52:00,84.0,70.0,29.66,West,267,11.0,21.0,64,0.00,,,0.00,,2013-06-12 17:52:00,
2013-06-12 13:02:00,84.0,70.0,29.66,West,267,11.0,21.0,64,0.00,,,0.00,,2013-06-12 18:02:00,
2013-06-12 13:12:00,84.0,70.0,29.66,West,267,11.0,21.0,64,0.00,,,0.00,,2013-06-12 18:12:00,
2013-06-12 13:22:00,84.0,71.0,29.68,WNW,292,10.0,22.0,66,0.00,,,0.00,,2013-06-12 18:22:00,
2013-06-12 13:32:00,82.0,70.0,29.70,NNW,344,12.0,24.0,67,0.00,,,0.00,,2013-06-12 18:32:00,
2013-06-12 13:43:00,82.0,70.0,29.70,NNW,344,12.0,24.0,67,0.00,,,0.00,,2013-06-12 18:43:00,
2013-06-12 13:53:00,81.0,69.0,29.70,WNW,296,12.0,24.0,68,0.00,,,0.00,,2013-06-12 18:53:00,
2013-06-12 14:01:00,80.0,68.0,29.71,West,277,10.0,23.0,68,0.00,,,0.00,,2013-06-12 19:01:00,
2013-06-12 14:11:00,80.0,68.0,29.71,West,277,10.0,23.0,68,0.00,,,0.00,,2013-06-12 19:11:00,
2013-06-12 14:22:00,80.0,68.0,29.72,NW,320,13.0,22.0,67,0.00,,,0.00,,2013-06-12 19:22:00,
2013-06-12 14:32:00,80.0,68.0,29.72,NW,320,13.0,22.0,67,0.00,,,0.00,,2013-06-12 19:32:00,
2013-06-12 14:42:00,80.0,68.0,29.72,NW,320,13.0,22.0,67,0.00,,,0.00,,2013-06-12 19:42:00,
2013-06-12 14:52:00,80.0,68.0,29.72,WNW,292,15.0,28.0,66,0.00,,,0.00,,2013-06-12 19:52:00,
2013-06-12 15:01:00,80.0,68.0,29.72,WNW,292,15.0,28.0,66,0.00,,,0.00,,2013-06-12 20:01:00,
2013-06-12 15:11:00,80.0,68.0,29.72,WNW,292,15.0,28.0,66,0.00,,,0.00,,2013-06-12 20:11:00,
2013-06-12 15:22:00,80.0,66.0,29.73,NW,314,12.0,21.0,63,0.00,,,0.00,,2013-06-12 20:22:00,
2013-06-12 15:32:00,80.0,67.0,29.73,NW,316,9.0,20.0,65,0.00,,,0.00,,2013-06-12 20:32:00,
2013-06-12 15:43:00,80.0,67.0,29.73,NW,316,9.0,20.0,65,0.00,,,0.00,,2013-06-12 20:43:00,
2013-06-12 15:54:00,80.0,67.0,29.73,NW,316,9.0,20.0,65,0.00,,,0.00,,2013-06-12 20:54:00,
2013-06-12 16:01:00,80.0,64.0,29.73,NW,321,16.0,32.0,59,0.00,,,0.00,,2013-06-12 21:01:00,
2013-06-12 16:11:00,80.0,64.0,29.73,NW,321,16.0,32.0,59,0.00,,,0.00,,2013-06-12 21:11:00,
2013-06-12 16:22:00,80.0,64.0,29.73,WNW,296,11.0,26.0,58,0.00,,,0.00,,2013-06-12 21:22:00,
2013-06-12 16:33:00,80.0,64.0,29.73,WNW,297,11.0,26.0,58,0.00,,,0.00,,2013-06-12 21:33:00,
2013-06-12 16:43:00,80.0,64.0,29.73,WNW,297,11.0,26.0,58,0.00,,,0.00,,2013-06-12 21:43:00,
2013-06-12 16:53:00,80.0,65.0,29.74,West,277,9.0,21.0,60,0.00,,,0.00,,2013-06-12 21:53:00,
2013-06-12 17:01:00,80.0,63.0,29.74,West,280,12.0,24.0,56,0.00,,,0.00,,2013-06-12 22:01:00,
2013-06-12 17:11:00,80.0,63.0,29.74,West,280,12.0,24.0,56,0.00,,,0.00,,2013-06-12 22:11:00,
2013-06-12 17:22:00,79.0,62.0,29.75,NNW,327,13.0,26.0,57,0.00,,,0.00,,2013-06-12 22:22:00,
2013-06-12 17:32:00,79.0,62.0,29.75,NNW,327,13.0,26.0,57,0.00,,,0.00,,2013-06-12 22:32:00,
2013-06-12 17:43:00,79.0,62.0,29.75,NNW,327,13.0,26.0,57,0.00,,,0.00,,2013-06-12 22:43:00,
2013-06-12 17:52:00,79.0,62.0,29.76,West,272,11.0,29.0,56,0.00,,,0.00,,2013-06-12 22:52:00,
2013-06-12 18:01:00,79.0,61.0,29.76,WNW,291,17.0,29.0,54,0.00,,,0.00,,2013-06-12 23:01:00,
2013-06-12 18:12:00,79.0,61.0,29.76,WNW,291,17.0,29.0,54,0.00,,,0.00,,2013-06-12 23:12:00,
2013-06-12 18:22:00,79.0,61.0,29.76,WNW,291,17.0,29.0,54,0.00,,,0.00,,2013-06-12 23:22:00,
2013-06-12 18:32:00,76.0,62.0,29.78,NW,304,11.0,22.0,61,0.00,,,0.00,,2013-06-12 23:32:00,
2013-06-12 18:42:00,76.0,62.0,29.78,NW,304,11.0,22.0,61,0.00,,,0.00,,2013-06-12 23:42:00,
2013-06-12 18:53:00,76.0,62.0,29.78,NW,304,11.0,22.0,61,0.00,,,0.00,,2013-06-12 23:53:00,
2013-06-12 19:11:00,73.0,59.0,29.79,WNW,292,16.0,35.0,62,0.00,,,0.00,,2013-06-13 00:11:00,
2013-06-12 19:42:00,72.0,58.0,29.81,West,277,14.0,24.0,62,0.00,,,0.00,,2013-06-13 00:42:00,
2013-06-12 19:52:00,71.0,57.0,29.82,WNW,293,14.0,31.0,62,0.00,,,0.00,,2013-06-13 00:52:00,
2013-06-12 20:01:00,71.0,56.0,29.83,WNW,293,15.0,28.0,60,0.00,,,0.00,,2013-06-13 01:01:00,
2013-06-12 20:12:00,71.0,56.0,29.83,WNW,293,15.0,28.0,60,0.00,,,0.00,,2013-06-13 01:12:00,
2013-06-12 20:22:00,70.0,57.0,29.84,NW,312,12.0,29.0,64,0.00,,,0.00,,2013-06-13 01:22:00,
2013-06-12 20:32:00,69.0,58.0,29.85,WNW,294,11.0,18.0,67,0.00,,,0.00,,2013-06-13 01:32:00,
2013-06-12 20:43:00,69.0,58.0,29.85,WNW,294,11.0,18.0,67,0.00,,,0.00,,2013-06-13 01:43:00,
2013-06-12 20:53:00,68.0,57.0,29.85,WNW,292,8.0,16.0,68,0.00,,,0.00,,2013-06-13 01:53:00,
2013-06-12 21:01:00,67.0,56.0,29.87,NW,304,6.0,13.0,69,0.00,,,0.00,,2013-06-13 02:01:00,
2013-06-12 21:12:00,67.0,56.0,29.87,NW,304,6.0,13.0,69,0.00,,,0.00,,2013-06-13 02:12:00,
2013-06-12 21:22:00,66.0,56.0,29.87,WNW,294,7.0,22.0,71,0.00,,,0.00,,2013-06-13 02:22:00,
2013-06-12 21:33:00,66.0,56.0,29.87,WNW,294,7.0,22.0,71,0.00,,,0.00,,2013-06-13 02:33:00,
2013-06-12 21:43:00,66.0,56.0,29.87,WNW,294,7.0,22.0,71,0.00,,,0.00,,2013-06-13 02:43:00,
2013-06-12 21:52:00,65.0,56.0,29.88,NNW,348,7.0,15.0,74,0.00,,,0.00,,2013-06-13 02:52:00,
2013-06-12 22:01:00,64.0,55.0,29.90,NNW,330,7.0,16.0,72,0.00,,,0.00,,2013-06-13 03:01:00,
2013-06-12 22:12:00,64.0,55.0,29.90,NNW,330,7.0,16.0,72,0.00,,,0.00,,2013-06-13 03:12:00,
2013-06-12 22:22:00,64.0,55.0,29.92,NE,40,5.0,16.0,72,0.00,,,0.00,,2013-06-13 03:22:00,
2013-06-12 22:33:00,64.0,55.0,29.92,NE,40,5.0,16.0,72,0.00,,,0.00,,2013-06-13 03:33:00,
2013-06-12 22:42:00,63.0,55.0,29.92,NW,308,8.0,17.0,74,0.00,,,0.00,,2013-06-13 03:42:00,
2013-06-12 22:52:00,63.0,55.0,29.93,WNW,300,4.0,12.0,74,0.00,,,0.00,,2013-06-13 03:52:00,
2013-06-12 23:01:00,63.0,55.0,29.93,WNW,300,4.0,12.0,74,0.00,,,0.00,,2013-06-13 04:01:00,
2013-06-12 23:11:00,62.0,54.0,29.93,NNW,331,5.0,13.0,74,0.00,,,0.00,,2013-06-13 04:11:00,
2013-06-12 23:22:00,62.0,54.0,29.93,WNW,285,6.0,13.0,74,0.00,,,0.00,,2013-06-13 04:22:00,
2013-06-12 23:32:00,62.0,54.0,29.94,WNW,293,5.0,12.0,75,0.00,,,0.00,,2013-06-13 04:32:00,
2013-06-12 23:43:00,62.0,54.0,29.94,WNW,293,5.0,12.0,75,0.00,,,0.00,,2013-06-13 04:43:00,
2013-06-12 23:53:00,62.0,54.0,29.94,WNW,286,5.0,13.0,75,0.00,,,0.00,,2013-06-13 04:53:00,